createdAt,value
2018-04-13T03:02:28.182Z,9.90
2018-04-13T03:04:56.478Z,10.00
2018-04-13T03:07:24.794Z,10.00
2018-04-13T03:09:53.086Z,9.80
2018-04-13T03:12:21.415Z,9.90
2018-04-13T03:14:49.726Z,9.80
2018-04-13T03:17:18.807Z,9.80
2018-04-13T03:19:47.105Z,9.70
2018-04-13T03:22:16.205Z,10.10
2018-04-13T03:24:45.285Z,10.20
2018-04-13T03:27:13.582Z,10.10
2018-04-13T03:29:42.669Z,10.10
2018-04-13T03:32:11.729Z,10.20
2018-04-13T03:34:40.058Z,10.10
2018-04-13T03:37:08.370Z,10.00
2018-04-13T03:39:36.688Z,10.10
2018-04-13T03:42:05.055Z,9.90
2018-04-13T03:44:33.372Z,9.90
2018-04-13T03:47:01.772Z,10.00
2018-04-13T03:49:30.092Z,9.90
2018-04-13T03:51:58.391Z,10.00
2018-04-13T03:54:27.623Z,10.20
2018-04-13T03:56:56.646Z,9.90
2018-04-13T03:59:24.967Z,9.90
2018-04-13T04:01:54.028Z,10.00
2018-04-13T04:04:22.355Z,10.00
2018-04-13T04:06:50.659Z,10.10
2018-04-13T04:09:19.038Z,10.30
2018-04-13T04:11:47.362Z,10.40
2018-04-13T04:14:16.427Z,9.90
2018-04-13T04:16:44.738Z,9.90
2018-04-13T04:19:13.922Z,10.00
2018-04-13T04:21:54.857Z,10.00
2018-04-13T04:24:34.915Z,10.00
2018-04-13T04:27:03.256Z,10.30
2018-04-13T04:29:31.555Z,10.40
2018-04-13T04:31:59.878Z,10.40
2018-04-13T04:34:28.213Z,10.30
2018-04-13T04:36:56.517Z,10.00
2018-04-13T04:39:24.816Z,9.90
2018-04-13T04:41:53.904Z,10.40
2018-04-13T04:44:22.978Z,10.40
2018-04-13T04:46:51.318Z,10.40
2018-04-13T04:49:19.610Z,10.50
2018-04-13T04:51:47.927Z,10.40
2018-04-13T04:54:16.232Z,10.30
2018-04-13T04:56:45.334Z,10.00
2018-04-13T04:59:14.391Z,10.20
2018-04-13T05:01:42.689Z,10.20
2018-04-13T05:04:11.788Z,10.40
2018-04-13T05:06:40.854Z,10.40
2018-04-13T05:09:09.178Z,10.40
2018-04-13T05:11:37.494Z,10.60
2018-04-13T05:14:05.822Z,10.50
2018-04-13T05:16:34.894Z,10.40
2018-04-13T05:19:03.213Z,10.40
2018-04-13T05:21:31.529Z,10.20
2018-04-13T05:23:59.862Z,10.00
2018-04-13T05:26:28.172Z,10.00
2018-04-13T05:28:56.475Z,10.00
2018-04-13T05:31:24.795Z,10.40
2018-04-13T05:33:53.088Z,10.50
2018-04-13T05:36:21.408Z,10.20
2018-04-13T05:38:49.700Z,10.30
2018-04-13T05:41:18.023Z,10.00
2018-04-13T05:43:46.322Z,10.10
2018-04-13T05:46:14.649Z,10.20
2018-04-13T05:48:43.719Z,10.20
2018-04-13T05:51:12.041Z,10.20
2018-04-13T05:53:40.341Z,10.20
2018-04-13T05:56:08.672Z,10.00
2018-04-13T05:58:37.740Z,10.00
2018-04-13T06:01:06.065Z,10.00
2018-04-13T06:03:34.364Z,10.00
2018-04-13T06:06:02.721Z,10.10
2018-04-13T06:08:31.873Z,10.10
2018-04-13T06:11:00.170Z,10.10
2018-04-13T06:13:28.569Z,10.40
2018-04-13T06:15:56.843Z,10.50
2018-04-13T06:18:25.202Z,10.40
2018-04-13T06:20:53.507Z,10.60
2018-04-13T06:23:21.842Z,10.70
2018-04-13T06:25:50.146Z,10.70
2018-04-13T06:28:19.239Z,10.90
2018-04-13T06:30:48.302Z,11.00
2018-04-13T06:33:16.641Z,11.00
2018-04-13T06:35:44.953Z,11.10
2018-04-13T06:38:13.286Z,11.00
2018-04-13T06:40:41.595Z,11.00
2018-04-13T06:43:09.921Z,10.90
2018-04-13T06:45:38.997Z,11.10
2018-04-13T06:48:07.323Z,11.10
2018-04-13T06:50:35.651Z,11.20
2018-04-13T06:53:03.977Z,11.40
2018-04-13T06:55:32.277Z,11.40
2018-04-13T06:58:00.577Z,11.40
2018-04-13T07:00:28.906Z,11.20
2018-04-13T07:02:57.213Z,11.10
2018-04-13T07:05:25.545Z,11.00
2018-04-13T07:07:53.852Z,11.20
2018-04-13T07:10:22.177Z,11.30
2018-04-13T07:12:50.479Z,11.30
2018-04-13T07:15:18.811Z,11.60
2018-04-13T07:17:47.120Z,11.70
2018-04-13T07:20:16.215Z,11.70
2018-04-13T07:22:45.287Z,11.70
2018-04-13T07:25:13.612Z,11.70
2018-04-13T07:27:41.911Z,11.70
2018-04-13T07:30:10.277Z,11.60
2018-04-13T07:32:39.322Z,11.70
2018-04-13T07:35:08.197Z,11.70
2018-04-13T07:37:35.976Z,11.60
2018-04-13T07:40:04.275Z,11.70
2018-04-13T07:42:33.361Z,11.70
2018-04-13T07:45:01.681Z,11.70
2018-04-13T07:47:30.001Z,11.80
2018-04-13T07:49:58.304Z,11.80
2018-04-13T07:52:28.265Z,11.70
2018-04-13T07:54:57.310Z,11.90
2018-04-13T07:57:26.401Z,12.00
2018-04-13T07:59:54.704Z,12.00
2018-04-13T08:02:23.026Z,12.00
2018-04-13T08:04:51.323Z,12.00
2018-04-13T08:07:19.665Z,12.10
2018-04-13T08:09:47.973Z,12.10
2018-04-13T08:12:16.278Z,12.20
2018-04-13T08:14:44.614Z,12.20
2018-04-13T08:17:12.927Z,12.10
2018-04-13T08:19:42.024Z,12.20
2018-04-13T08:22:11.092Z,12.20
2018-04-13T08:24:39.420Z,12.20
2018-04-13T08:27:07.726Z,12.10
2018-04-13T08:29:36.045Z,12.10
2018-04-13T08:32:05.128Z,12.10
2018-04-13T08:34:33.449Z,12.10
2018-04-13T08:37:01.757Z,12.10
2018-04-13T08:39:30.082Z,11.90
2018-04-13T08:41:59.150Z,11.90
2018-04-13T08:44:27.481Z,11.90
2018-04-13T08:46:55.784Z,11.90
2018-04-13T08:49:24.114Z,12.00
2018-04-13T08:51:53.177Z,12.00
2018-04-13T08:54:21.519Z,12.00
2018-04-13T08:56:49.826Z,12.00
2018-04-13T08:59:18.150Z,12.00
2018-04-13T09:01:46.446Z,12.10
2018-04-13T09:04:14.765Z,12.10
2018-04-13T09:06:43.084Z,12.10
2018-04-13T09:09:11.413Z,12.20
2018-04-13T09:11:39.737Z,12.10
2018-04-13T09:14:08.060Z,12.00
2018-04-13T09:16:36.383Z,11.90
2018-04-13T09:19:05.459Z,12.00
2018-04-13T09:21:33.781Z,12.00
2018-04-13T09:24:02.082Z,12.00
2018-04-13T09:26:31.325Z,12.00
2018-04-13T09:28:59.627Z,12.10
2018-04-13T09:31:27.957Z,12.20
2018-04-13T09:33:56.274Z,12.30
2018-04-13T09:36:24.615Z,12.10
2018-04-13T09:38:52.927Z,12.10
2018-04-13T09:41:22.029Z,12.00
2018-04-13T09:43:50.345Z,12.00
2018-04-13T09:46:18.666Z,12.00
2018-04-13T09:48:47.742Z,12.10
2018-04-13T09:51:16.135Z,12.10
2018-04-13T09:53:44.432Z,12.10
2018-04-13T09:56:12.774Z,12.10
2018-04-13T09:58:41.097Z,12.20
2018-04-13T10:04:13.117Z,12.40
2018-04-13T10:06:41.448Z,12.40
2018-04-13T10:09:09.769Z,12.30
2018-04-13T10:11:38.125Z,12.40
2018-04-13T10:14:06.438Z,12.40
2018-04-13T10:16:34.750Z,12.50
2018-04-13T10:19:03.973Z,12.40
2018-04-13T10:21:32.282Z,12.40
2018-04-13T10:24:00.616Z,12.50
2018-04-13T10:26:28.939Z,12.60
2018-04-13T10:28:57.261Z,12.70
2018-04-13T10:31:26.340Z,12.70
2018-04-13T10:33:54.670Z,12.70
2018-04-13T10:36:22.979Z,12.70
2018-04-13T10:38:51.301Z,12.60
2018-04-13T10:41:19.610Z,12.60
2018-04-13T10:43:47.936Z,12.70
2018-04-13T10:46:17.001Z,12.80
2018-04-13T10:48:45.357Z,12.80
2018-04-13T10:51:13.656Z,12.70
2018-04-13T10:53:41.980Z,12.80
2018-04-13T10:56:11.050Z,12.80
2018-04-13T10:58:39.395Z,12.80
2018-04-13T11:01:07.699Z,12.70
2018-04-13T11:03:35.993Z,12.80
2018-04-13T11:06:05.083Z,12.80
2018-04-13T11:08:33.392Z,12.80
2018-04-13T11:11:01.714Z,12.80
2018-04-13T11:13:30.021Z,12.80
2018-04-13T11:15:59.110Z,12.80
2018-04-13T11:18:27.416Z,12.80
2018-04-13T11:20:55.741Z,12.80
2018-04-13T11:23:24.042Z,12.70
2018-04-13T11:25:52.370Z,12.50
2018-04-13T11:28:20.661Z,12.40
2018-04-13T11:30:49.749Z,12.20
2018-04-13T11:33:18.063Z,12.20
2018-04-13T11:35:46.379Z,12.20
2018-04-13T11:38:15.451Z,12.10
2018-04-13T11:40:44.753Z,12.10
2018-04-13T11:43:13.826Z,12.10
2018-04-13T11:45:42.172Z,12.10
2018-04-13T11:48:10.477Z,12.00
2018-04-13T11:50:38.795Z,12.00
2018-04-13T11:53:07.853Z,11.80
2018-04-13T11:55:36.190Z,11.70
2018-04-13T11:58:04.481Z,11.70
2018-04-13T12:00:32.781Z,11.60
2018-04-13T12:03:01.106Z,11.70
2018-04-13T12:05:29.430Z,11.80
2018-04-13T12:07:57.745Z,11.60
2018-04-13T12:10:26.811Z,11.50
2018-04-13T12:12:55.140Z,11.50
2018-04-13T12:15:23.457Z,11.50
2018-04-13T12:17:51.778Z,11.40
2018-04-13T12:20:20.837Z,11.30
2018-04-13T12:22:49.156Z,11.30
2018-04-13T12:25:18.227Z,11.30
2018-04-13T12:27:46.549Z,11.20
2018-04-13T12:30:14.850Z,11.20
2018-04-13T12:32:43.162Z,11.20
2018-04-13T12:35:11.461Z,11.20
2018-04-13T12:37:39.798Z,11.20
2018-04-13T12:40:08.089Z,11.20
2018-04-13T12:42:36.418Z,11.20
2018-04-13T12:45:04.732Z,11.10
2018-04-13T12:47:33.020Z,11.00
2018-04-13T12:50:01.371Z,10.90
2018-04-13T12:52:29.686Z,10.90
2018-04-13T12:54:59.000Z,10.90
2018-04-13T12:57:27.861Z,10.70
2018-04-13T12:59:56.188Z,10.70
2018-04-13T13:02:24.481Z,10.70
2018-04-13T13:04:52.801Z,10.60
2018-04-13T13:07:21.100Z,10.60
2018-04-13T13:09:50.196Z,10.60
2018-04-13T13:12:19.374Z,10.60
2018-04-13T13:14:47.698Z,10.60
2018-04-13T13:17:16.845Z,10.70
2018-04-13T13:19:45.158Z,10.60
2018-04-13T13:22:13.458Z,10.60
2018-04-13T13:24:41.778Z,10.50
2018-04-13T13:27:10.075Z,10.50
2018-04-13T13:29:39.156Z,10.50
2018-04-13T13:32:07.449Z,10.40
2018-04-13T13:34:36.542Z,10.40
2018-04-13T13:37:05.616Z,10.30
2018-04-13T13:39:34.243Z,10.30
2018-04-13T13:42:02.529Z,10.40
2018-04-13T13:44:30.838Z,10.40
2018-04-13T13:46:59.854Z,10.40
2018-04-13T13:49:28.185Z,10.30
2018-04-13T13:51:56.512Z,10.30
2018-04-13T13:54:24.808Z,10.30
2018-04-13T13:56:53.894Z,10.30
2018-04-13T13:59:22.954Z,10.30
2018-04-13T14:01:51.272Z,10.30
2018-04-13T14:04:20.335Z,10.20
2018-04-13T14:06:49.126Z,10.20
2018-04-13T14:09:17.582Z,10.30
2018-04-13T14:11:45.893Z,10.40
2018-04-13T14:14:14.199Z,10.30
2018-04-13T14:16:43.287Z,10.40
2018-04-13T14:19:12.360Z,10.40
2018-04-13T14:21:40.687Z,10.40
2018-04-13T14:24:09.019Z,10.40
2018-04-13T14:26:37.337Z,10.40
2018-04-13T14:29:07.849Z,10.40
2018-04-13T14:31:37.026Z,10.40
2018-04-13T14:34:05.327Z,10.40
2018-04-13T14:36:33.666Z,10.50
2018-04-13T14:39:01.983Z,10.60
2018-04-13T14:41:30.388Z,10.60
2018-04-13T14:43:58.687Z,10.70
2018-04-13T14:46:26.998Z,10.70
2018-04-13T14:48:56.087Z,10.60
2018-04-13T14:51:40.753Z,10.60
2018-04-13T14:54:09.071Z,10.60
2018-04-13T14:56:37.362Z,10.50
2018-04-13T14:59:07.634Z,10.50
2018-04-13T15:01:38.637Z,10.60
2018-04-13T15:04:06.955Z,10.60
2018-04-13T15:06:36.014Z,10.60
2018-04-13T15:09:04.395Z,10.50
2018-04-13T15:11:33.536Z,10.50
2018-04-13T15:14:01.904Z,10.40
2018-04-13T15:16:30.978Z,10.40
2018-04-13T15:18:59.302Z,10.40
2018-04-13T15:21:27.608Z,10.40
2018-04-13T15:23:55.940Z,10.30
2018-04-13T15:26:24.993Z,10.40
2018-04-13T15:28:53.314Z,10.40
2018-04-13T15:31:22.386Z,10.40
2018-04-13T15:33:50.706Z,10.40
2018-04-13T15:36:19.049Z,10.40
2018-04-13T15:38:47.367Z,10.30
2018-04-13T15:41:16.434Z,10.30
2018-04-13T15:43:45.549Z,10.20
2018-04-13T15:46:13.843Z,10.20
2018-04-13T15:48:42.150Z,10.20
2018-04-13T15:51:10.488Z,10.10
2018-04-13T15:53:38.794Z,10.10
2018-04-13T15:56:07.150Z,10.10
2018-04-13T15:58:35.456Z,10.10
2018-04-13T16:01:04.542Z,10.10
2018-04-13T16:03:32.836Z,10.10
2018-04-13T16:06:01.155Z,10.10
2018-04-13T16:08:30.240Z,10.10
2018-04-13T16:10:59.314Z,10.00
2018-04-13T16:13:27.605Z,10.00
2018-04-13T16:15:56.681Z,10.00
2018-04-13T16:18:24.996Z,9.90
2018-04-13T16:20:54.074Z,9.90
2018-04-13T16:23:22.405Z,9.90
2018-04-13T16:25:50.730Z,9.90
2018-04-13T16:28:19.790Z,9.90
2018-04-13T16:30:48.869Z,9.90
2018-04-13T16:33:17.187Z,9.90
2018-04-13T16:35:45.501Z,9.90
2018-04-13T16:38:13.785Z,9.90
2018-04-13T16:40:42.073Z,9.90
2018-04-13T16:43:10.402Z,9.90
2018-04-13T16:45:38.684Z,9.90
2018-04-13T16:48:07.770Z,9.90
2018-04-13T16:50:36.063Z,9.90
2018-04-13T16:53:05.142Z,9.90
2018-04-13T16:55:33.440Z,9.90
2018-04-13T16:58:02.516Z,10.00
2018-04-13T17:00:30.835Z,10.00
2018-04-13T17:02:59.158Z,10.00
2018-04-13T17:05:27.468Z,9.90
2018-04-13T17:07:56.534Z,9.90
2018-04-13T17:10:24.820Z,9.90
2018-04-13T17:12:53.175Z,9.90
2018-04-13T17:15:21.459Z,9.90
2018-04-13T17:17:49.781Z,10.00
2018-04-13T17:20:18.078Z,10.00
2018-04-13T17:22:46.404Z,10.00
2018-04-13T17:25:14.709Z,9.90
2018-04-13T17:27:43.781Z,9.90
2018-04-13T17:30:12.097Z,9.90
2018-04-13T17:32:40.398Z,9.90
2018-04-13T17:35:08.718Z,9.90
2018-04-13T17:37:37.017Z,10.00
2018-04-13T17:40:05.436Z,10.00
2018-04-13T17:42:33.789Z,10.00
2018-04-13T17:45:02.106Z,10.10
2018-04-13T17:47:30.418Z,10.20
2018-04-13T17:49:59.501Z,10.00
2018-04-13T17:52:27.805Z,10.00
2018-04-13T17:54:56.161Z,10.10
2018-04-13T17:57:25.237Z,10.10
2018-04-13T17:59:53.557Z,10.10
2018-04-13T18:02:21.887Z,10.10
2018-04-13T18:04:50.225Z,10.10
2018-04-13T18:07:18.556Z,10.10
2018-04-13T18:09:47.688Z,10.10
2018-04-13T18:12:16.872Z,10.20
2018-04-13T18:14:45.935Z,10.20
2018-04-13T18:17:14.247Z,10.20
2018-04-13T18:19:43.311Z,10.10
2018-04-13T18:22:11.630Z,10.10
2018-04-13T18:24:39.922Z,10.10
2018-04-13T18:27:08.243Z,10.20
2018-04-13T18:29:36.543Z,10.20
2018-04-13T18:32:05.626Z,10.10
2018-04-13T18:34:33.921Z,10.10
2018-04-13T18:37:02.268Z,10.20
2018-04-13T18:39:30.643Z,10.20
2018-04-13T18:41:59.661Z,10.30
2018-04-13T18:44:27.987Z,10.20
2018-04-13T18:46:56.302Z,10.10
2018-04-13T18:49:24.627Z,10.10
2018-04-13T18:51:52.943Z,10.20
2018-04-13T18:54:21.269Z,10.20
2018-04-13T18:56:49.567Z,10.20
2018-04-13T18:59:17.886Z,10.20
2018-04-13T19:01:46.194Z,10.30
2018-04-13T19:04:15.284Z,10.30
2018-04-13T19:06:44.342Z,10.30
2018-04-13T19:09:12.658Z,10.30
2018-04-13T19:11:41.747Z,10.30
2018-04-13T19:14:10.846Z,10.20
2018-04-13T19:16:39.922Z,10.10
2018-04-13T19:19:08.249Z,10.00
2018-04-13T19:21:36.545Z,10.00
2018-04-13T19:24:04.876Z,10.20
2018-04-13T19:26:33.939Z,10.20
2018-04-13T19:29:02.239Z,10.20
2018-04-13T19:31:31.330Z,10.20
2018-04-13T19:33:59.631Z,10.20
2018-04-13T19:36:28.741Z,10.10
2018-04-13T19:38:57.039Z,10.10
2018-04-13T19:41:25.376Z,10.10
2018-04-13T19:43:54.434Z,10.00
2018-04-13T19:46:22.762Z,10.00
2018-04-13T19:48:51.061Z,10.10
2018-04-13T19:51:19.385Z,10.20
2018-04-13T19:53:47.686Z,10.20
2018-04-13T19:56:16.010Z,10.30
2018-04-13T19:58:44.314Z,10.30
2018-04-13T20:01:12.648Z,10.40
2018-04-13T20:03:40.995Z,10.40
2018-04-13T20:06:09.298Z,10.40
2018-04-13T20:08:38.357Z,10.40
2018-04-13T20:11:07.455Z,10.30
2018-04-13T20:13:35.791Z,10.30
2018-04-13T20:16:04.118Z,10.30
2018-04-13T20:18:33.189Z,10.50
2018-04-13T20:21:01.516Z,10.40
2018-04-13T20:23:29.821Z,10.40
2018-04-13T20:25:58.133Z,10.30
2018-04-13T20:28:27.225Z,10.20
2018-04-13T20:30:55.532Z,10.20
2018-04-13T20:33:23.849Z,10.20
2018-04-13T20:35:52.151Z,10.20
2018-04-13T20:38:20.478Z,10.30
2018-04-13T20:40:48.787Z,10.40
2018-04-13T20:43:17.118Z,10.40
2018-04-13T20:45:45.431Z,10.40
2018-04-13T20:48:13.756Z,10.30
2018-04-13T20:50:42.841Z,10.30
2018-04-13T20:53:11.955Z,10.20
2018-04-13T20:55:41.032Z,10.40
2018-04-13T20:58:10.126Z,10.40
2018-04-13T21:00:39.207Z,10.20
2018-04-13T21:03:07.548Z,10.10
2018-04-13T21:05:35.842Z,10.10
2018-04-13T21:08:04.314Z,10.40
2018-04-13T21:10:32.617Z,10.30
2018-04-13T21:13:00.977Z,10.30
2018-04-13T21:15:29.277Z,10.40
2018-04-13T21:17:57.593Z,10.40
2018-04-13T21:20:25.929Z,10.40
2018-04-13T21:22:54.247Z,10.30
2018-04-13T21:25:22.574Z,10.40
2018-04-13T21:27:50.887Z,10.40
2018-04-13T21:30:19.994Z,10.50
2018-04-13T21:32:49.061Z,10.40
2018-04-13T21:35:17.387Z,10.40
2018-04-13T21:37:45.686Z,10.20
2018-04-13T21:40:14.018Z,10.40
2018-04-13T21:42:43.089Z,10.20
2018-04-13T21:45:11.417Z,10.20
2018-04-13T21:47:39.735Z,10.10
2018-04-13T21:50:08.078Z,10.20
2018-04-13T21:52:36.381Z,10.50
2018-04-13T21:55:04.708Z,10.50
2018-04-13T21:57:33.026Z,10.20
2018-04-13T22:00:01.375Z,10.20
2018-04-13T22:02:29.686Z,10.10
2018-04-13T22:04:57.997Z,9.90
2018-04-13T22:07:26.329Z,10.10
2018-04-13T22:09:54.642Z,10.30
2018-04-13T22:12:34.689Z,10.30
2018-04-13T22:15:03.006Z,10.30
2018-04-13T22:17:31.333Z,10.20
2018-04-13T22:19:59.645Z,10.20
2018-04-13T22:22:28.745Z,10.10
2018-04-13T22:24:57.826Z,10.10
2018-04-13T22:27:26.154Z,10.10
2018-04-13T22:29:54.471Z,10.00
2018-04-13T22:32:22.797Z,9.90
2018-04-13T22:34:51.103Z,10.10
2018-04-13T22:37:19.499Z,10.00
2018-04-13T22:39:47.816Z,10.00
2018-04-13T22:42:16.915Z,10.20
2018-04-13T22:44:45.225Z,10.20
2018-04-13T22:47:13.586Z,10.00
2018-04-13T22:49:41.904Z,9.90
